sensor_id;sensor_type;location;lat;lon;timestamp;pressure;altitude;pressure_sealevel;temperature;humidity
16461;BME280;8341;42.048;24.650;2022-09-09T00:02:10;97441.06;;;19.12;64.81
16461;BME280;8341;42.048;24.650;2022-09-09T00:04:46;97442.88;;;19.10;65.93
16461;BME280;8341;42.048;24.650;2022-09-09T00:07:19;97438.31;;;19.12;65.42
16461;BME280;8341;42.048;24.650;2022-09-09T00:09:54;97432.56;;;18.92;66.21
16461;BME280;8341;42.048;24.650;2022-09-09T00:12:34;97431.59;;;18.89;66.33
16461;BME280;8341;42.048;24.650;2022-09-09T00:15:10;97443.75;;;18.99;67.07
16461;BME280;8341;42.048;24.650;2022-09-09T00:17:43;97439.28;;;18.96;68.57
16461;BME280;8341;42.048;24.650;2022-09-09T00:20:19;97432.63;;;18.86;67.93
16461;BME280;8341;42.048;24.650;2022-09-09T00:22:53;97429.88;;;18.86;67.70
16461;BME280;8341;42.048;24.650;2022-09-09T00:25:29;97434.34;;;18.70;66.98
16461;BME280;8341;42.048;24.650;2022-09-09T00:27:59;97435.25;;;18.79;67.48
16461;BME280;8341;42.048;24.650;2022-09-09T00:30:31;97441.75;;;18.81;67.58
16461;BME280;8341;42.048;24.650;2022-09-09T00:33:08;97436.44;;;18.83;68.45
16461;BME280;8341;42.048;24.650;2022-09-09T00:35:44;97412.53;;;18.67;68.95
16461;BME280;8341;42.048;24.650;2022-09-09T00:38:14;97447.22;;;18.87;68.54
16461;BME280;8341;42.048;24.650;2022-09-09T00:40:48;97454.75;;;18.86;69.22
16461;BME280;8341;42.048;24.650;2022-09-09T00:43:26;97447.19;;;18.68;70.14
16461;BME280;8341;42.048;24.650;2022-09-09T00:46:16;97432.38;;;18.47;69.40
16461;BME280;8341;42.048;24.650;2022-09-09T00:48:54;97437.78;;;18.58;69.91
16461;BME280;8341;42.048;24.650;2022-09-09T00:51:32;97424.19;;;18.60;67.98
16461;BME280;8341;42.048;24.650;2022-09-09T00:54:35;97439.94;;;18.65;70.19
16461;BME280;8341;42.048;24.650;2022-09-09T00:57:17;97449.91;;;18.49;72.44
16461;BME280;8341;42.048;24.650;2022-09-09T00:59:51;97455.63;;;18.33;72.95
16461;BME280;8341;42.048;24.650;2022-09-09T01:02:26;97452.41;;;18.04;72.82
16461;BME280;8341;42.048;24.650;2022-09-09T01:05:00;97457.00;;;18.21;70.14
16461;BME280;8341;42.048;24.650;2022-09-09T01:07:28;97461.13;;;18.33;72.81
16461;BME280;8341;42.048;24.650;2022-09-09T01:09:57;97435.59;;;18.27;72.68
16461;BME280;8341;42.048;24.650;2022-09-09T01:12:30;97452.03;;;18.38;73.17
16461;BME280;8341;42.048;24.650;2022-09-09T01:15:08;97449.88;;;18.31;71.49
16461;BME280;8341;42.048;24.650;2022-09-09T01:17:46;97443.53;;;18.36;71.08
16461;BME280;8341;42.048;24.650;2022-09-09T01:20:19;97442.03;;;18.35;72.38
16461;BME280;8341;42.048;24.650;2022-09-09T01:22:59;97421.84;;;18.21;72.49
16461;BME280;8341;42.048;24.650;2022-09-09T01:28:47;97437.91;;;18.23;71.55
16461;BME280;8341;42.048;24.650;2022-09-09T01:31:18;97428.13;;;18.22;71.79
16461;BME280;8341;42.048;24.650;2022-09-09T01:33:46;97432.25;;;18.34;71.77
16461;BME280;8341;42.048;24.650;2022-09-09T01:36:19;97438.91;;;18.44;72.87
16461;BME280;8341;42.048;24.650;2022-09-09T01:38:48;97432.13;;;18.45;72.54
16461;BME280;8341;42.048;24.650;2022-09-09T01:41:15;97425.47;;;18.35;72.84
16461;BME280;8341;42.048;24.650;2022-09-09T01:43:42;97439.00;;;18.38;72.76
16461;BME280;8341;42.048;24.650;2022-09-09T01:46:12;97443.44;;;18.41;74.08
16461;BME280;8341;42.048;24.650;2022-09-09T01:48:40;97432.03;;;18.32;73.55
16461;BME280;8341;42.048;24.650;2022-09-09T01:51:08;97433.81;;;18.29;73.98
16461;BME280;8341;42.048;24.650;2022-09-09T01:53:36;97432.16;;;18.21;74.24
16461;BME280;8341;42.048;24.650;2022-09-09T01:56:13;97436.75;;;18.12;74.14
16461;BME280;8341;42.048;24.650;2022-09-09T01:58:53;97438.25;;;18.13;75.02
16461;BME280;8341;42.048;24.650;2022-09-09T02:01:34;97449.00;;;18.17;74.16
16461;BME280;8341;42.048;24.650;2022-09-09T02:04:14;97448.72;;;17.96;74.74
16461;BME280;8341;42.048;24.650;2022-09-09T02:06:46;97431.44;;;17.90;74.47
16461;BME280;8341;42.048;24.650;2022-09-09T02:09:17;97440.69;;;17.93;75.82
16461;BME280;8341;42.048;24.650;2022-09-09T02:11:47;97439.03;;;17.84;75.78
16461;BME280;8341;42.048;24.650;2022-09-09T02:14:22;97431.97;;;17.89;77.15
16461;BME280;8341;42.048;24.650;2022-09-09T02:16:56;97431.69;;;17.92;77.51
16461;BME280;8341;42.048;24.650;2022-09-09T02:19:26;97429.16;;;17.94;77.49
16461;BME280;8341;42.048;24.650;2022-09-09T02:21:58;97428.88;;;17.98;77.43
16461;BME280;8341;42.048;24.650;2022-09-09T02:24:27;97431.28;;;17.83;77.60
16461;BME280;8341;42.048;24.650;2022-09-09T02:26:57;97427.47;;;17.86;78.19
16461;BME280;8341;42.048;24.650;2022-09-09T02:29:29;97432.03;;;17.83;78.51
16461;BME280;8341;42.048;24.650;2022-09-09T02:32:02;97426.47;;;17.89;77.83
16461;BME280;8341;42.048;24.650;2022-09-09T02:34:31;97422.94;;;17.88;77.68
16461;BME280;8341;42.048;24.650;2022-09-09T02:37:03;97428.69;;;17.66;78.70
16461;BME280;8341;42.048;24.650;2022-09-09T02:39:32;97430.19;;;17.62;78.72
16461;BME280;8341;42.048;24.650;2022-09-09T02:41:59;97438.38;;;17.73;78.74
16461;BME280;8341;42.048;24.650;2022-09-09T02:44:26;97434.00;;;17.59;79.71
16461;BME280;8341;42.048;24.650;2022-09-09T02:47:13;97435.03;;;17.56;80.34
16461;BME280;8341;42.048;24.650;2022-09-09T02:49:51;97438.28;;;17.54;80.93
16461;BME280;8341;42.048;24.650;2022-09-09T02:52:28;97430.28;;;17.56;81.42
16461;BME280;8341;42.048;24.650;2022-09-09T02:55:04;97440.03;;;17.51;82.41
16461;BME280;8341;42.048;24.650;2022-09-09T02:57:34;97443.50;;;17.63;82.42
16461;BME280;8341;42.048;24.650;2022-09-09T03:00:03;97431.53;;;17.55;82.88
16461;BME280;8341;42.048;24.650;2022-09-09T03:02:32;97443.00;;;17.59;83.35
16461;BME280;8341;42.048;24.650;2022-09-09T03:04:59;97442.78;;;17.57;83.58
16461;BME280;8341;42.048;24.650;2022-09-09T03:07:26;97439.78;;;17.55;82.63
16461;BME280;8341;42.048;24.650;2022-09-09T03:09:53;97441.56;;;17.52;82.53
16461;BME280;8341;42.048;24.650;2022-09-09T03:12:20;97443.59;;;17.46;83.90
16461;BME280;8341;42.048;24.650;2022-09-09T03:14:47;97447.44;;;17.38;84.09
16461;BME280;8341;42.048;24.650;2022-09-09T03:17:14;97440.44;;;17.31;82.20
16461;BME280;8341;42.048;24.650;2022-09-09T03:19:42;97440.38;;;17.42;83.72
16461;BME280;8341;42.048;24.650;2022-09-09T03:22:10;97445.84;;;17.48;83.35
16461;BME280;8341;42.048;24.650;2022-09-09T03:24:39;97439.34;;;17.45;84.07
16461;BME280;8341;42.048;24.650;2022-09-09T03:27:06;97445.13;;;17.42;83.35
16461;BME280;8341;42.048;24.650;2022-09-09T03:29:33;97450.38;;;17.45;83.02
16461;BME280;8341;42.048;24.650;2022-09-09T03:32:00;97459.13;;;17.44;81.52
16461;BME280;8341;42.048;24.650;2022-09-09T03:34:27;97456.47;;;17.33;83.75
16461;BME280;8341;42.048;24.650;2022-09-09T03:36:55;97450.91;;;17.38;84.04
16461;BME280;8341;42.048;24.650;2022-09-09T03:39:22;97459.75;;;17.31;83.51
16461;BME280;8341;42.048;24.650;2022-09-09T03:41:49;97463.44;;;17.39;82.98
16461;BME280;8341;42.048;24.650;2022-09-09T03:44:16;97460.03;;;17.28;83.22
16461;BME280;8341;42.048;24.650;2022-09-09T03:46:43;97464.59;;;17.20;84.88
16461;BME280;8341;42.048;24.650;2022-09-09T03:49:10;97463.31;;;17.21;83.93
16461;BME280;8341;42.048;24.650;2022-09-09T03:51:37;97460.03;;;17.28;85.26
16461;BME280;8341;42.048;24.650;2022-09-09T03:54:06;97458.25;;;16.89;88.34
16461;BME280;8341;42.048;24.650;2022-09-09T03:56:35;97462.25;;;16.88;87.97
16461;BME280;8341;42.048;24.650;2022-09-09T03:59:03;97455.66;;;17.03;87.88
16461;BME280;8341;42.048;24.650;2022-09-09T04:01:30;97458.38;;;17.08;87.89
16461;BME280;8341;42.048;24.650;2022-09-09T04:03:57;97452.59;;;17.12;88.08
16461;BME280;8341;42.048;24.650;2022-09-09T04:06:24;97453.56;;;17.20;87.20
16461;BME280;8341;42.048;24.650;2022-09-09T04:08:52;97435.31;;;17.11;86.95
16461;BME280;8341;42.048;24.650;2022-09-09T04:11:20;97454.78;;;17.24;87.83
16461;BME280;8341;42.048;24.650;2022-09-09T04:13:47;97448.34;;;17.11;88.06
16461;BME280;8341;42.048;24.650;2022-09-09T04:16:15;97444.50;;;17.25;87.88
16461;BME280;8341;42.048;24.650;2022-09-09T04:18:42;97449.28;;;17.24;87.23
16461;BME280;8341;42.048;24.650;2022-09-09T04:21:10;97448.91;;;17.39;87.40
16461;BME280;8341;42.048;24.650;2022-09-09T04:23:38;97444.16;;;17.39;85.62
16461;BME280;8341;42.048;24.650;2022-09-09T04:26:05;97441.66;;;17.36;84.63
16461;BME280;8341;42.048;24.650;2022-09-09T04:28:36;97445.31;;;17.49;84.60
16461;BME280;8341;42.048;24.650;2022-09-09T04:31:08;97453.34;;;17.53;83.32
16461;BME280;8341;42.048;24.650;2022-09-09T04:33:36;97460.88;;;17.47;84.24
16461;BME280;8341;42.048;24.650;2022-09-09T04:36:05;97465.03;;;17.29;85.69
16461;BME280;8341;42.048;24.650;2022-09-09T04:38:32;97463.94;;;17.43;85.83
16461;BME280;8341;42.048;24.650;2022-09-09T04:40:59;97464.91;;;17.46;86.84
16461;BME280;8341;42.048;24.650;2022-09-09T04:43:26;97461.09;;;17.49;86.40
16461;BME280;8341;42.048;24.650;2022-09-09T04:45:55;97471.78;;;17.69;84.94
16461;BME280;8341;42.048;24.650;2022-09-09T04:48:22;97461.53;;;17.64;84.59
16461;BME280;8341;42.048;24.650;2022-09-09T04:50:57;97463.97;;;17.73;84.39
16461;BME280;8341;42.048;24.650;2022-09-09T05:09:09;97485.97;;;18.33;81.48
16461;BME280;8341;42.048;24.650;2022-09-09T05:11:36;97485.69;;;18.60;79.60
16461;BME280;8341;42.048;24.650;2022-09-09T05:14:04;97488.56;;;18.73;78.67
16461;BME280;8341;42.048;24.650;2022-09-09T05:16:31;97472.16;;;18.81;78.16
16461;BME280;8341;42.048;24.650;2022-09-09T05:18:58;97468.94;;;18.96;78.06
16461;BME280;8341;42.048;24.650;2022-09-09T05:21:25;97458.69;;;18.91;78.19
16461;BME280;8341;42.048;24.650;2022-09-09T05:23:53;97469.00;;;18.90;78.67
16461;BME280;8341;42.048;24.650;2022-09-09T05:26:22;97476.25;;;18.93;80.59
16461;BME280;8341;42.048;24.650;2022-09-09T05:28:49;97475.44;;;18.98;79.62
16461;BME280;8341;42.048;24.650;2022-09-09T05:31:18;97471.34;;;19.05;78.76
16461;BME280;8341;42.048;24.650;2022-09-09T05:33:46;97469.50;;;19.26;77.80
16461;BME280;8341;42.048;24.650;2022-09-09T05:36:16;97476.91;;;19.36;77.52
16461;BME280;8341;42.048;24.650;2022-09-09T05:38:43;97476.09;;;19.42;77.63
16461;BME280;8341;42.048;24.650;2022-09-09T05:41:11;97471.84;;;19.41;78.07
16461;BME280;8341;42.048;24.650;2022-09-09T05:43:43;97491.50;;;19.37;79.20
16461;BME280;8341;42.048;24.650;2022-09-09T05:46:13;97489.34;;;19.49;78.79
16461;BME280;8341;42.048;24.650;2022-09-09T05:48:42;97482.72;;;19.52;78.61
16461;BME280;8341;42.048;24.650;2022-09-09T05:51:10;97488.78;;;19.69;76.89
16461;BME280;8341;42.048;24.650;2022-09-09T05:53:38;97488.06;;;19.81;77.31
16461;BME280;8341;42.048;24.650;2022-09-09T05:56:06;97478.16;;;19.86;75.83
16461;BME280;8341;42.048;24.650;2022-09-09T05:58:36;97489.25;;;19.86;74.96
16461;BME280;8341;42.048;24.650;2022-09-09T06:01:07;97483.63;;;19.60;76.06
16461;BME280;8341;42.048;24.650;2022-09-09T06:03:36;97478.91;;;19.55;75.88
16461;BME280;8341;42.048;24.650;2022-09-09T06:06:05;97466.75;;;19.26;77.51
16461;BME280;8341;42.048;24.650;2022-09-09T06:08:33;97452.72;;;19.43;78.54
16461;BME280;8341;42.048;24.650;2022-09-09T06:11:03;97436.38;;;19.58;77.46
16461;BME280;8341;42.048;24.650;2022-09-09T06:13:31;97445.97;;;19.70;77.47
16461;BME280;8341;42.048;24.650;2022-09-09T06:15:59;97448.63;;;19.62;76.30
16461;BME280;8341;42.048;24.650;2022-09-09T06:18:27;97455.84;;;19.33;76.71
16461;BME280;8341;42.048;24.650;2022-09-09T06:20:56;97449.28;;;19.18;78.71
16461;BME280;8341;42.048;24.650;2022-09-09T06:23:24;97452.41;;;19.27;80.50
16461;BME280;8341;42.048;24.650;2022-09-09T06:25:51;97451.09;;;19.15;81.79
16461;BME280;8341;42.048;24.650;2022-09-09T06:28:18;97453.84;;;19.15;81.40
16461;BME280;8341;42.048;24.650;2022-09-09T06:30:45;97458.56;;;19.20;82.26
16461;BME280;8341;42.048;24.650;2022-09-09T06:33:13;97459.28;;;19.21;79.92
16461;BME280;8341;42.048;24.650;2022-09-09T06:35:41;97461.75;;;19.24;80.23
16461;BME280;8341;42.048;24.650;2022-09-09T06:38:09;97474.97;;;19.31;80.14
16461;BME280;8341;42.048;24.650;2022-09-09T06:40:36;97470.34;;;19.40;79.40
16461;BME280;8341;42.048;24.650;2022-09-09T06:43:03;97475.56;;;19.62;77.30
16461;BME280;8341;42.048;24.650;2022-09-09T06:45:30;97474.59;;;19.72;77.18
16461;BME280;8341;42.048;24.650;2022-09-09T06:47:57;97486.69;;;19.88;76.46
16461;BME280;8341;42.048;24.650;2022-09-09T06:50:24;97480.84;;;19.91;76.07
16461;BME280;8341;42.048;24.650;2022-09-09T06:52:53;97478.75;;;19.97;74.93
16461;BME280;8341;42.048;24.650;2022-09-09T06:55:20;97490.16;;;20.20;75.08
16461;BME280;8341;42.048;24.650;2022-09-09T06:57:47;97496.47;;;20.21;74.30
16461;BME280;8341;42.048;24.650;2022-09-09T07:00:14;97486.19;;;20.03;73.65
16461;BME280;8341;42.048;24.650;2022-09-09T07:02:42;97491.28;;;20.30;73.39
16461;BME280;8341;42.048;24.650;2022-09-09T07:05:09;97480.09;;;20.36;72.64
16461;BME280;8341;42.048;24.650;2022-09-09T07:07:37;97483.38;;;20.47;72.23
16461;BME280;8341;42.048;24.650;2022-09-09T07:10:06;97480.91;;;20.70;71.99
16461;BME280;8341;42.048;24.650;2022-09-09T07:12:33;97476.88;;;20.84;71.05
16461;BME280;8341;42.048;24.650;2022-09-09T07:15:00;97477.63;;;20.85;70.56
16461;BME280;8341;42.048;24.650;2022-09-09T07:17:27;97494.44;;;20.87;70.56
16461;BME280;8341;42.048;24.650;2022-09-09T07:19:54;97482.31;;;20.77;70.29
16461;BME280;8341;42.048;24.650;2022-09-09T07:22:22;97475.81;;;20.74;71.25
16461;BME280;8341;42.048;24.650;2022-09-09T07:24:50;97486.91;;;20.74;71.01
16461;BME280;8341;42.048;24.650;2022-09-09T07:27:19;97491.03;;;20.68;70.00
16461;BME280;8341;42.048;24.650;2022-09-09T07:29:46;97499.59;;;20.70;69.50
16461;BME280;8341;42.048;24.650;2022-09-09T07:32:14;97490.84;;;20.66;69.86
16461;BME280;8341;42.048;24.650;2022-09-09T07:34:42;97492.34;;;20.80;68.83
16461;BME280;8341;42.048;24.650;2022-09-09T07:37:09;97496.78;;;20.83;68.79
16461;BME280;8341;42.048;24.650;2022-09-09T07:39:37;97499.25;;;20.86;67.74
16461;BME280;8341;42.048;24.650;2022-09-09T07:42:04;97492.72;;;20.97;68.34
16461;BME280;8341;42.048;24.650;2022-09-09T07:44:33;97492.19;;;21.11;69.27
16461;BME280;8341;42.048;24.650;2022-09-09T07:47:02;97482.22;;;21.29;68.39
16461;BME280;8341;42.048;24.650;2022-09-09T07:49:29;97489.63;;;21.47;66.06
16461;BME280;8341;42.048;24.650;2022-09-09T07:51:57;97491.88;;;21.49;65.54
16461;BME280;8341;42.048;24.650;2022-09-09T07:54:24;97493.72;;;21.67;66.02
16461;BME280;8341;42.048;24.650;2022-09-09T07:56:52;97475.84;;;21.75;65.76
16461;BME280;8341;42.048;24.650;2022-09-09T07:59:19;97483.28;;;21.80;65.79
16461;BME280;8341;42.048;24.650;2022-09-09T08:01:49;97484.22;;;21.62;64.76
16461;BME280;8341;42.048;24.650;2022-09-09T08:04:19;97479.97;;;21.61;64.33
16461;BME280;8341;42.048;24.650;2022-09-09T08:06:49;97467.25;;;21.66;66.07
16461;BME280;8341;42.048;24.650;2022-09-09T08:09:18;97483.44;;;21.96;65.09
16461;BME280;8341;42.048;24.650;2022-09-09T08:11:46;97480.06;;;22.10;64.54
16461;BME280;8341;42.048;24.650;2022-09-09T08:14:13;97477.84;;;22.16;63.58
16461;BME280;8341;42.048;24.650;2022-09-09T08:16:43;97486.81;;;22.02;63.11
16461;BME280;8341;42.048;24.650;2022-09-09T08:19:11;97478.59;;;22.17;63.08
16461;BME280;8341;42.048;24.650;2022-09-09T08:21:41;97482.59;;;22.29;62.12
16461;BME280;8341;42.048;24.650;2022-09-09T08:24:11;97484.06;;;22.30;62.14
16461;BME280;8341;42.048;24.650;2022-09-09T08:26:40;97468.81;;;22.16;62.53
16461;BME280;8341;42.048;24.650;2022-09-09T08:29:09;97467.44;;;22.37;62.09
16461;BME280;8341;42.048;24.650;2022-09-09T08:31:39;97468.28;;;22.53;61.58
16461;BME280;8341;42.048;24.650;2022-09-09T08:34:07;97469.56;;;22.52;61.94
16461;BME280;8341;42.048;24.650;2022-09-09T08:36:37;97475.19;;;22.60;62.02
16461;BME280;8341;42.048;24.650;2022-09-09T08:39:05;97480.81;;;22.67;60.82
16461;BME280;8341;42.048;24.650;2022-09-09T08:41:51;97476.56;;;22.66;61.10
16461;BME280;8341;42.048;24.650;2022-09-09T08:44:32;97483.28;;;22.78;60.31
16461;BME280;8341;42.048;24.650;2022-09-09T08:47:13;97481.84;;;22.85;61.00
16461;BME280;8341;42.048;24.650;2022-09-09T08:49:59;97482.94;;;22.82;60.86
16461;BME280;8341;42.048;24.650;2022-09-09T08:52:31;97472.47;;;23.03;60.18
16461;BME280;8341;42.048;24.650;2022-09-09T08:55:05;97471.13;;;22.96;60.44
16461;BME280;8341;42.048;24.650;2022-09-09T08:57:38;97476.16;;;22.98;60.39
16461;BME280;8341;42.048;24.650;2022-09-09T09:00:09;97466.31;;;22.97;60.57
16461;BME280;8341;42.048;24.650;2022-09-09T09:02:45;97465.25;;;23.08;60.72
16461;BME280;8341;42.048;24.650;2022-09-09T09:05:20;97462.66;;;23.17;60.53
16461;BME280;8341;42.048;24.650;2022-09-09T09:08:00;97459.50;;;23.13;60.39
16461;BME280;8341;42.048;24.650;2022-09-09T09:10:37;97453.00;;;23.11;61.06
16461;BME280;8341;42.048;24.650;2022-09-09T09:13:13;97464.25;;;23.41;59.13
16461;BME280;8341;42.048;24.650;2022-09-09T09:15:41;97455.28;;;23.35;59.19
16461;BME280;8341;42.048;24.650;2022-09-09T09:18:12;97449.06;;;23.57;60.75
16461;BME280;8341;42.048;24.650;2022-09-09T09:20:50;97453.53;;;23.75;58.72
16461;BME280;8341;42.048;24.650;2022-09-09T09:23:22;97445.53;;;23.79;60.32
16461;BME280;8341;42.048;24.650;2022-09-09T09:25:50;97442.00;;;23.79;57.45
16461;BME280;8341;42.048;24.650;2022-09-09T09:28:23;97436.66;;;23.96;58.58
16461;BME280;8341;42.048;24.650;2022-09-09T09:30:53;97438.69;;;24.10;58.56
16461;BME280;8341;42.048;24.650;2022-09-09T09:33:26;97435.91;;;24.10;58.58
16461;BME280;8341;42.048;24.650;2022-09-09T09:35:55;97431.44;;;24.07;57.47
16461;BME280;8341;42.048;24.650;2022-09-09T09:38:27;97426.59;;;24.00;57.40
16461;BME280;8341;42.048;24.650;2022-09-09T09:40:56;97418.28;;;24.08;58.22
16461;BME280;8341;42.048;24.650;2022-09-09T09:43:26;97422.31;;;23.99;57.40
16461;BME280;8341;42.048;24.650;2022-09-09T09:45:55;97420.84;;;24.06;57.81
16461;BME280;8341;42.048;24.650;2022-09-09T09:48:23;97409.72;;;24.13;57.81
16461;BME280;8341;42.048;24.650;2022-09-09T09:50:52;97413.78;;;24.27;57.04
16461;BME280;8341;42.048;24.650;2022-09-09T09:53:23;97413.16;;;24.52;57.75
16461;BME280;8341;42.048;24.650;2022-09-09T09:55:56;97415.28;;;24.76;58.31
16461;BME280;8341;42.048;24.650;2022-09-09T09:58:25;97406.19;;;24.83;56.11
16461;BME280;8341;42.048;24.650;2022-09-09T10:00:53;97415.88;;;24.82;55.94
16461;BME280;8341;42.048;24.650;2022-09-09T10:03:25;97401.13;;;24.89;54.73
16461;BME280;8341;42.048;24.650;2022-09-09T10:05:53;97391.28;;;24.88;56.49
16461;BME280;8341;42.048;24.650;2022-09-09T10:08:22;97390.41;;;25.10;56.09
16461;BME280;8341;42.048;24.650;2022-09-09T10:11:10;97391.72;;;25.09;53.56
16461;BME280;8341;42.048;24.650;2022-09-09T10:13:48;97388.06;;;25.31;55.14
16461;BME280;8341;42.048;24.650;2022-09-09T10:16:29;97393.97;;;25.35;55.71
16461;BME280;8341;42.048;24.650;2022-09-09T10:19:04;97399.94;;;25.39;54.36
16461;BME280;8341;42.048;24.650;2022-09-09T10:27:35;97402.06;;;25.81;53.88
16461;BME280;8341;42.048;24.650;2022-09-09T10:30:12;97400.41;;;25.78;52.84
16461;BME280;8341;42.048;24.650;2022-09-09T10:32:48;97401.19;;;25.95;52.92
16461;BME280;8341;42.048;24.650;2022-09-09T10:35:36;97397.31;;;25.91;51.95
16461;BME280;8341;42.048;24.650;2022-09-09T10:38:16;97391.75;;;26.08;52.45
16461;BME280;8341;42.048;24.650;2022-09-09T10:40:59;97389.94;;;26.03;51.10
16461;BME280;8341;42.048;24.650;2022-09-09T10:43:42;97382.84;;;26.02;51.46
16461;BME280;8341;42.048;24.650;2022-09-09T10:46:17;97382.38;;;25.96;50.81
16461;BME280;8341;42.048;24.650;2022-09-09T10:49:00;97375.44;;;26.22;51.74
16461;BME280;8341;42.048;24.650;2022-09-09T10:51:36;97380.94;;;26.29;52.69
16461;BME280;8341;42.048;24.650;2022-09-09T10:54:20;97380.94;;;26.46;51.59
16461;BME280;8341;42.048;24.650;2022-09-09T10:56:54;97375.09;;;26.52;51.00
16461;BME280;8341;42.048;24.650;2022-09-09T10:59:26;97379.91;;;26.68;51.10
16461;BME280;8341;42.048;24.650;2022-09-09T11:01:57;97378.19;;;26.73;49.95
16461;BME280;8341;42.048;24.650;2022-09-09T11:04:30;97372.84;;;26.85;50.67
16461;BME280;8341;42.048;24.650;2022-09-09T11:07:04;97357.84;;;26.90;50.82
16461;BME280;8341;42.048;24.650;2022-09-09T11:09:39;97365.69;;;26.91;49.20
16461;BME280;8341;42.048;24.650;2022-09-09T11:12:10;97353.16;;;26.92;48.48
16461;BME280;8341;42.048;24.650;2022-09-09T11:14:42;97360.75;;;26.82;49.23
16461;BME280;8341;42.048;24.650;2022-09-09T11:17:13;97363.13;;;26.86;48.72
16461;BME280;8341;42.048;24.650;2022-09-09T11:19:43;97357.53;;;26.86;49.07
16461;BME280;8341;42.048;24.650;2022-09-09T11:22:19;97345.00;;;26.87;50.13
16461;BME280;8341;42.048;24.650;2022-09-09T11:24:52;97349.59;;;26.92;49.58
16461;BME280;8341;42.048;24.650;2022-09-09T11:27:26;97349.59;;;26.92;49.44
16461;BME280;8341;42.048;24.650;2022-09-09T11:30:10;97352.13;;;26.97;51.39
16461;BME280;8341;42.048;24.650;2022-09-09T11:33:02;97351.44;;;26.80;49.56
16461;BME280;8341;42.048;24.650;2022-09-09T11:35:44;97345.25;;;26.81;50.54
16461;BME280;8341;42.048;24.650;2022-09-09T11:38:26;97350.47;;;26.67;49.17
16461;BME280;8341;42.048;24.650;2022-09-09T11:40:58;97349.28;;;26.88;50.01
16461;BME280;8341;42.048;24.650;2022-09-09T11:43:29;97344.97;;;27.04;50.00
16461;BME280;8341;42.048;24.650;2022-09-09T11:46:00;97348.94;;;27.01;49.43
16461;BME280;8341;42.048;24.650;2022-09-09T11:48:32;97341.28;;;27.01;49.13
16461;BME280;8341;42.048;24.650;2022-09-09T11:51:03;97339.41;;;27.13;49.15
16461;BME280;8341;42.048;24.650;2022-09-09T11:53:31;97341.19;;;27.18;47.91
16461;BME280;8341;42.048;24.650;2022-09-09T11:56:09;97332.38;;;27.22;48.00
16461;BME280;8341;42.048;24.650;2022-09-09T11:58:40;97329.88;;;27.26;48.67
16461;BME280;8341;42.048;24.650;2022-09-09T12:01:27;97327.09;;;27.26;49.32
16461;BME280;8341;42.048;24.650;2022-09-09T12:06:51;97322.47;;;26.85;49.06
16461;BME280;8341;42.048;24.650;2022-09-09T12:12:31;97325.38;;;27.04;50.10
16461;BME280;8341;42.048;24.650;2022-09-09T12:15:18;97305.44;;;27.00;49.64
16461;BME280;8341;42.048;24.650;2022-09-09T12:17:49;97310.13;;;26.88;49.32
16461;BME280;8341;42.048;24.650;2022-09-09T12:20:31;97307.81;;;26.94;50.66
16461;BME280;8341;42.048;24.650;2022-09-09T12:23:26;97304.19;;;26.84;50.50
16461;BME280;8341;42.048;24.650;2022-09-09T12:26:36;97299.22;;;26.92;49.69
16461;BME280;8341;42.048;24.650;2022-09-09T12:29:16;97291.06;;;26.77;49.53
16461;BME280;8341;42.048;24.650;2022-09-09T12:31:58;97294.47;;;27.11;50.25
16461;BME280;8341;42.048;24.650;2022-09-09T12:34:38;97290.41;;;27.31;50.60
16461;BME280;8341;42.048;24.650;2022-09-09T12:37:17;97291.44;;;27.36;49.75
16461;BME280;8341;42.048;24.650;2022-09-09T12:39:53;97281.41;;;27.33;49.68
16461;BME280;8341;42.048;24.650;2022-09-09T12:42:23;97292.66;;;27.43;50.39
16461;BME280;8341;42.048;24.650;2022-09-09T12:44:55;97288.16;;;27.57;50.51
16461;BME280;8341;42.048;24.650;2022-09-09T12:47:27;97289.78;;;27.69;50.69
16461;BME280;8341;42.048;24.650;2022-09-09T12:49:58;97287.31;;;27.83;50.27
16461;BME280;8341;42.048;24.650;2022-09-09T12:52:29;97284.66;;;27.94;49.27
16461;BME280;8341;42.048;24.650;2022-09-09T12:55:01;97279.81;;;28.05;48.67
16461;BME280;8341;42.048;24.650;2022-09-09T12:57:34;97284.19;;;27.69;47.09
16461;BME280;8341;42.048;24.650;2022-09-09T13:00:14;97277.97;;;27.71;47.57
16461;BME280;8341;42.048;24.650;2022-09-09T13:02:51;97272.41;;;28.00;47.25
16461;BME280;8341;42.048;24.650;2022-09-09T13:05:28;97271.56;;;28.07;48.36
16461;BME280;8341;42.048;24.650;2022-09-09T13:08:18;97274.78;;;28.13;48.95
16461;BME280;8341;42.048;24.650;2022-09-09T13:10:49;97274.03;;;28.12;48.14
16461;BME280;8341;42.048;24.650;2022-09-09T13:13:28;97267.09;;;28.23;48.03
16461;BME280;8341;42.048;24.650;2022-09-09T13:15:59;97262.53;;;28.37;48.69
16461;BME280;8341;42.048;24.650;2022-09-09T13:18:29;97256.28;;;28.48;48.40
16461;BME280;8341;42.048;24.650;2022-09-09T13:21:00;97252.31;;;28.51;48.26
16461;BME280;8341;42.048;24.650;2022-09-09T13:23:30;97250.53;;;28.46;48.73
16461;BME280;8341;42.048;24.650;2022-09-09T13:25:58;97250.28;;;28.32;47.76
16461;BME280;8341;42.048;24.650;2022-09-09T13:28:27;97255.16;;;28.32;47.81
16461;BME280;8341;42.048;24.650;2022-09-09T13:30:59;97251.34;;;28.27;46.46
16461;BME280;8341;42.048;24.650;2022-09-09T13:33:31;97244.50;;;28.30;46.54
16461;BME280;8341;42.048;24.650;2022-09-09T13:36:02;97235.81;;;28.26;46.51
16461;BME280;8341;42.048;24.650;2022-09-09T13:38:33;97241.44;;;28.26;47.06
16461;BME280;8341;42.048;24.650;2022-09-09T13:41:03;97235.84;;;28.17;47.46
16461;BME280;8341;42.048;24.650;2022-09-09T13:43:34;97238.63;;;28.26;47.57
16461;BME280;8341;42.048;24.650;2022-09-09T13:46:04;97224.13;;;28.39;49.47
16461;BME280;8341;42.048;24.650;2022-09-09T13:48:31;97226.34;;;28.41;49.51
16461;BME280;8341;42.048;24.650;2022-09-09T13:51:04;97221.50;;;28.32;47.54
16461;BME280;8341;42.048;24.650;2022-09-09T13:53:31;97219.88;;;28.29;48.34
16461;BME280;8341;42.048;24.650;2022-09-09T13:55:59;97208.81;;;28.21;47.98